sensor_id;sensor_type;location;lat;lon;timestamp;P1;durP1;ratioP1;P2;durP2;ratioP2
57023;SDS011;42916;54.346;18.562;2022-07-21T00:00:00;8.10;;;5.20;;
57023;SDS011;42916;54.346;18.562;2022-07-21T00:02:52;6.60;;;5.80;;
57023;SDS011;42916;54.346;18.562;2022-07-21T00:05:20;9.20;;;6.10;;
57023;SDS011;42916;54.346;18.562;2022-07-21T00:07:48;8.40;;;6.00;;
57023;SDS011;42916;54.346;18.562;2022-07-21T00:10:16;7.80;;;5.20;;
57023;SDS011;42916;54.346;18.562;2022-07-21T00:12:43;7.10;;;5.00;;
57023;SDS011;42916;54.346;18.562;2022-07-21T00:15:10;7.00;;;5.50;;
57023;SDS011;42916;54.346;18.562;2022-07-21T00:17:38;7.50;;;5.50;;
57023;SDS011;42916;54.346;18.562;2022-07-21T00:20:06;7.80;;;5.90;;
57023;SDS011;42916;54.346;18.562;2022-07-21T00:22:34;7.90;;;5.80;;
57023;SDS011;42916;54.346;18.562;2022-07-21T00:25:02;7.20;;;5.50;;
57023;SDS011;42916;54.346;18.562;2022-07-21T00:27:30;8.20;;;5.60;;
57023;SDS011;42916;54.346;18.562;2022-07-21T00:29:57;7.60;;;5.20;;
57023;SDS011;42916;54.346;18.562;2022-07-21T00:32:24;6.80;;;5.40;;
57023;SDS011;42916;54.346;18.562;2022-07-21T00:34:51;8.40;;;5.90;;
57023;SDS011;42916;54.346;18.562;2022-07-21T00:37:18;9.20;;;5.80;;
57023;SDS011;42916;54.346;18.562;2022-07-21T00:39:44;7.40;;;6.00;;
57023;SDS011;42916;54.346;18.562;2022-07-21T00:42:24;8.80;;;5.60;;
57023;SDS011;42916;54.346;18.562;2022-07-21T00:44:53;8.00;;;5.80;;
57023;SDS011;42916;54.346;18.562;2022-07-21T00:47:21;10.10;;;5.80;;
57023;SDS011;42916;54.346;18.562;2022-07-21T00:49:49;6.00;;;5.10;;
57023;SDS011;42916;54.346;18.562;2022-07-21T00:52:16;7.30;;;5.40;;
57023;SDS011;42916;54.346;18.562;2022-07-21T00:54:44;7.40;;;5.50;;
57023;SDS011;42916;54.346;18.562;2022-07-21T00:57:11;7.20;;;5.80;;
57023;SDS011;42916;54.346;18.562;2022-07-21T00:59:39;7.70;;;6.10;;
57023;SDS011;42916;54.346;18.562;2022-07-21T01:02:08;6.90;;;5.60;;
57023;SDS011;42916;54.346;18.562;2022-07-21T01:04:35;6.90;;;5.80;;
57023;SDS011;42916;54.346;18.562;2022-07-21T01:07:03;7.80;;;5.10;;
57023;SDS011;42916;54.346;18.562;2022-07-21T01:09:31;7.50;;;5.30;;
57023;SDS011;42916;54.346;18.562;2022-07-21T01:11:59;6.40;;;5.20;;
57023;SDS011;42916;54.346;18.562;2022-07-21T01:14:26;12.50;;;5.60;;
57023;SDS011;42916;54.346;18.562;2022-07-21T01:16:54;8.50;;;6.00;;
57023;SDS011;42916;54.346;18.562;2022-07-21T01:19:21;7.60;;;5.90;;
57023;SDS011;42916;54.346;18.562;2022-07-21T01:21:48;7.30;;;5.30;;
57023;SDS011;42916;54.346;18.562;2022-07-21T01:24:15;7.90;;;5.30;;
57023;SDS011;42916;54.346;18.562;2022-07-21T01:26:48;7.30;;;5.00;;
57023;SDS011;42916;54.346;18.562;2022-07-21T01:29:17;8.30;;;5.40;;
57023;SDS011;42916;54.346;18.562;2022-07-21T01:31:45;7.40;;;5.50;;
57023;SDS011;42916;54.346;18.562;2022-07-21T01:34:13;8.80;;;5.50;;
57023;SDS011;42916;54.346;18.562;2022-07-21T01:36:40;7.60;;;5.90;;
57023;SDS011;42916;54.346;18.562;2022-07-21T01:39:07;9.50;;;6.20;;
57023;SDS011;42916;54.346;18.562;2022-07-21T01:41:53;8.70;;;5.90;;
57023;SDS011;42916;54.346;18.562;2022-07-21T01:44:19;9.40;;;6.00;;
57023;SDS011;42916;54.346;18.562;2022-07-21T01:46:48;7.60;;;5.30;;
57023;SDS011;42916;54.346;18.562;2022-07-21T01:49:17;7.20;;;5.30;;
57023;SDS011;42916;54.346;18.562;2022-07-21T01:51:44;6.70;;;5.50;;
57023;SDS011;42916;54.346;18.562;2022-07-21T01:54:12;7.90;;;5.90;;
57023;SDS011;42916;54.346;18.562;2022-07-21T01:56:39;7.50;;;5.30;;
57023;SDS011;42916;54.346;18.562;2022-07-21T01:59:06;8.10;;;6.40;;
57023;SDS011;42916;54.346;18.562;2022-07-21T02:01:33;8.30;;;5.40;;
57023;SDS011;42916;54.346;18.562;2022-07-21T02:04:01;7.90;;;5.40;;
57023;SDS011;42916;54.346;18.562;2022-07-21T02:06:30;9.60;;;5.50;;
57023;SDS011;42916;54.346;18.562;2022-07-21T02:08:58;9.20;;;5.90;;
57023;SDS011;42916;54.346;18.562;2022-07-21T02:11:24;10.10;;;6.60;;
57023;SDS011;42916;54.346;18.562;2022-07-21T02:13:51;8.60;;;6.40;;
57023;SDS011;42916;54.346;18.562;2022-07-21T02:16:18;9.20;;;6.70;;
57023;SDS011;42916;54.346;18.562;2022-07-21T02:18:45;10.00;;;6.10;;
57023;SDS011;42916;54.346;18.562;2022-07-21T02:21:12;8.00;;;6.20;;
57023;SDS011;42916;54.346;18.562;2022-07-21T02:23:38;9.30;;;5.70;;
57023;SDS011;42916;54.346;18.562;2022-07-21T02:26:05;9.50;;;5.80;;
57023;SDS011;42916;54.346;18.562;2022-07-21T02:28:32;7.90;;;6.50;;
57023;SDS011;42916;54.346;18.562;2022-07-21T02:30:59;9.70;;;6.00;;
57023;SDS011;42916;54.346;18.562;2022-07-21T02:33:26;9.80;;;6.70;;
57023;SDS011;42916;54.346;18.562;2022-07-21T02:35:52;7.70;;;6.10;;
57023;SDS011;42916;54.346;18.562;2022-07-21T02:38:19;8.10;;;6.00;;
57023;SDS011;42916;54.346;18.562;2022-07-21T02:40:46;6.70;;;5.40;;
57023;SDS011;42916;54.346;18.562;2022-07-21T02:43:12;7.90;;;5.80;;
57023;SDS011;42916;54.346;18.562;2022-07-21T02:45:39;8.50;;;6.30;;
57023;SDS011;42916;54.346;18.562;2022-07-21T02:50:38;7.20;;;6.50;;
57023;SDS011;42916;54.346;18.562;2022-07-21T02:53:08;7.50;;;6.40;;
57023;SDS011;42916;54.346;18.562;2022-07-21T02:55:40;11.70;;;6.60;;
57023;SDS011;42916;54.346;18.562;2022-07-21T02:58:11;9.30;;;6.10;;
57023;SDS011;42916;54.346;18.562;2022-07-21T03:01:00;7.10;;;5.60;;
57023;SDS011;42916;54.346;18.562;2022-07-21T03:03:31;8.60;;;5.70;;
57023;SDS011;42916;54.346;18.562;2022-07-21T03:05:59;8.70;;;5.80;;
57023;SDS011;42916;54.346;18.562;2022-07-21T03:08:27;8.10;;;6.20;;
57023;SDS011;42916;54.346;18.562;2022-07-21T03:10:54;8.30;;;6.50;;
57023;SDS011;42916;54.346;18.562;2022-07-21T03:13:22;8.80;;;6.10;;
57023;SDS011;42916;54.346;18.562;2022-07-21T03:15:49;8.90;;;6.30;;
57023;SDS011;42916;54.346;18.562;2022-07-21T03:18:16;7.70;;;5.70;;
57023;SDS011;42916;54.346;18.562;2022-07-21T03:20:43;6.60;;;5.60;;
57023;SDS011;42916;54.346;18.562;2022-07-21T03:23:10;8.10;;;5.90;;
57023;SDS011;42916;54.346;18.562;2022-07-21T03:25:37;10.20;;;6.30;;
57023;SDS011;42916;54.346;18.562;2022-07-21T03:28:04;8.80;;;6.20;;
57023;SDS011;42916;54.346;18.562;2022-07-21T03:30:33;9.90;;;6.30;;
57023;SDS011;42916;54.346;18.562;2022-07-21T03:33:00;8.30;;;6.40;;
57023;SDS011;42916;54.346;18.562;2022-07-21T03:35:27;9.40;;;6.50;;
57023;SDS011;42916;54.346;18.562;2022-07-21T03:37:57;7.40;;;6.10;;
57023;SDS011;42916;54.346;18.562;2022-07-21T03:40:27;9.70;;;5.90;;
57023;SDS011;42916;54.346;18.562;2022-07-21T03:42:58;10.70;;;5.50;;
57023;SDS011;42916;54.346;18.562;2022-07-21T03:45:27;8.90;;;6.00;;
57023;SDS011;42916;54.346;18.562;2022-07-21T03:47:58;8.80;;;6.10;;
57023;SDS011;42916;54.346;18.562;2022-07-21T03:50:27;9.80;;;6.70;;
57023;SDS011;42916;54.346;18.562;2022-07-21T03:52:54;8.80;;;6.10;;
57023;SDS011;42916;54.346;18.562;2022-07-21T03:55:21;8.30;;;6.10;;
57023;SDS011;42916;54.346;18.562;2022-07-21T03:57:49;12.30;;;6.50;;
57023;SDS011;42916;54.346;18.562;2022-07-21T04:00:17;8.60;;;6.40;;
57023;SDS011;42916;54.346;18.562;2022-07-21T04:02:46;9.90;;;5.90;;
57023;SDS011;42916;54.346;18.562;2022-07-21T04:05:14;9.80;;;5.60;;
57023;SDS011;42916;54.346;18.562;2022-07-21T04:07:43;9.10;;;6.10;;
57023;SDS011;42916;54.346;18.562;2022-07-21T04:10:12;12.20;;;6.40;;
57023;SDS011;42916;54.346;18.562;2022-07-21T04:12:40;8.60;;;6.60;;
57023;SDS011;42916;54.346;18.562;2022-07-21T04:15:07;9.60;;;6.60;;
57023;SDS011;42916;54.346;18.562;2022-07-21T04:17:35;8.40;;;6.30;;
57023;SDS011;42916;54.346;18.562;2022-07-21T04:20:04;7.60;;;5.90;;
57023;SDS011;42916;54.346;18.562;2022-07-21T04:22:32;9.40;;;6.00;;
57023;SDS011;42916;54.346;18.562;2022-07-21T04:24:58;8.40;;;6.50;;
57023;SDS011;42916;54.346;18.562;2022-07-21T04:27:26;10.00;;;6.90;;
57023;SDS011;42916;54.346;18.562;2022-07-21T04:29:53;11.30;;;6.50;;
57023;SDS011;42916;54.346;18.562;2022-07-21T04:32:20;11.00;;;6.50;;
57023;SDS011;42916;54.346;18.562;2022-07-21T04:34:48;10.50;;;6.60;;
57023;SDS011;42916;54.346;18.562;2022-07-21T04:37:15;9.30;;;6.90;;
57023;SDS011;42916;54.346;18.562;2022-07-21T04:39:42;9.90;;;6.50;;
57023;SDS011;42916;54.346;18.562;2022-07-21T04:42:09;10.90;;;6.40;;
57023;SDS011;42916;54.346;18.562;2022-07-21T04:44:36;11.50;;;7.00;;
57023;SDS011;42916;54.346;18.562;2022-07-21T04:47:03;9.20;;;5.60;;
57023;SDS011;42916;54.346;18.562;2022-07-21T04:49:29;9.10;;;5.60;;
57023;SDS011;42916;54.346;18.562;2022-07-21T04:51:56;8.80;;;6.10;;
57023;SDS011;42916;54.346;18.562;2022-07-21T04:54:23;10.60;;;6.50;;
57023;SDS011;42916;54.346;18.562;2022-07-21T04:56:49;7.70;;;6.10;;
57023;SDS011;42916;54.346;18.562;2022-07-21T04:59:16;9.10;;;6.20;;
57023;SDS011;42916;54.346;18.562;2022-07-21T05:01:43;11.70;;;6.50;;
57023;SDS011;42916;54.346;18.562;2022-07-21T05:04:09;10.60;;;5.90;;
57023;SDS011;42916;54.346;18.562;2022-07-21T05:06:36;9.90;;;6.10;;
57023;SDS011;42916;54.346;18.562;2022-07-21T05:09:03;9.10;;;6.00;;
57023;SDS011;42916;54.346;18.562;2022-07-21T05:11:30;8.20;;;5.90;;
57023;SDS011;42916;54.346;18.562;2022-07-21T05:13:57;8.90;;;6.40;;
57023;SDS011;42916;54.346;18.562;2022-07-21T05:16:24;8.90;;;6.50;;
57023;SDS011;42916;54.346;18.562;2022-07-21T05:18:50;8.80;;;5.50;;
57023;SDS011;42916;54.346;18.562;2022-07-21T05:21:17;9.50;;;5.80;;
57023;SDS011;42916;54.346;18.562;2022-07-21T05:23:44;13.20;;;5.60;;
57023;SDS011;42916;54.346;18.562;2022-07-21T05:26:11;6.30;;;5.20;;
57023;SDS011;42916;54.346;18.562;2022-07-21T05:28:39;6.20;;;5.30;;
57023;SDS011;42916;54.346;18.562;2022-07-21T05:31:07;9.10;;;5.80;;
57023;SDS011;42916;54.346;18.562;2022-07-21T05:33:35;8.70;;;5.50;;
57023;SDS011;42916;54.346;18.562;2022-07-21T05:36:05;8.10;;;5.30;;
57023;SDS011;42916;54.346;18.562;2022-07-21T05:38:32;10.10;;;5.70;;
57023;SDS011;42916;54.346;18.562;2022-07-21T05:40:59;8.30;;;5.40;;
57023;SDS011;42916;54.346;18.562;2022-07-21T05:43:26;8.90;;;6.20;;
57023;SDS011;42916;54.346;18.562;2022-07-21T05:45:53;12.50;;;7.00;;
57023;SDS011;42916;54.346;18.562;2022-07-21T05:48:19;7.70;;;5.80;;
57023;SDS011;42916;54.346;18.562;2022-07-21T05:50:46;9.30;;;5.40;;
57023;SDS011;42916;54.346;18.562;2022-07-21T05:53:13;8.00;;;5.10;;
57023;SDS011;42916;54.346;18.562;2022-07-21T05:55:39;7.80;;;5.60;;
57023;SDS011;42916;54.346;18.562;2022-07-21T05:58:07;9.80;;;5.10;;
57023;SDS011;42916;54.346;18.562;2022-07-21T06:00:34;7.50;;;4.70;;
57023;SDS011;42916;54.346;18.562;2022-07-21T06:03:00;9.20;;;4.70;;
57023;SDS011;42916;54.346;18.562;2022-07-21T06:05:27;7.10;;;4.90;;
57023;SDS011;42916;54.346;18.562;2022-07-21T06:07:53;9.60;;;4.70;;
57023;SDS011;42916;54.346;18.562;2022-07-21T06:10:20;9.10;;;4.60;;
57023;SDS011;42916;54.346;18.562;2022-07-21T06:12:47;8.60;;;4.80;;
57023;SDS011;42916;54.346;18.562;2022-07-21T06:15:13;6.60;;;4.90;;
57023;SDS011;42916;54.346;18.562;2022-07-21T06:17:41;9.30;;;4.90;;
57023;SDS011;42916;54.346;18.562;2022-07-21T06:20:09;7.50;;;4.80;;
57023;SDS011;42916;54.346;18.562;2022-07-21T06:22:37;6.30;;;4.40;;
57023;SDS011;42916;54.346;18.562;2022-07-21T06:25:05;6.00;;;5.00;;
57023;SDS011;42916;54.346;18.562;2022-07-21T06:27:32;9.80;;;5.30;;
57023;SDS011;42916;54.346;18.562;2022-07-21T06:29:59;9.30;;;4.70;;
57023;SDS011;42916;54.346;18.562;2022-07-21T06:32:26;10.40;;;5.10;;
57023;SDS011;42916;54.346;18.562;2022-07-21T06:34:52;7.10;;;5.00;;
57023;SDS011;42916;54.346;18.562;2022-07-21T06:37:19;10.50;;;4.80;;
57023;SDS011;42916;54.346;18.562;2022-07-21T06:39:47;11.10;;;4.90;;
57023;SDS011;42916;54.346;18.562;2022-07-21T06:42:14;5.40;;;4.50;;
57023;SDS011;42916;54.346;18.562;2022-07-21T06:44:41;6.70;;;5.40;;
57023;SDS011;42916;54.346;18.562;2022-07-21T06:47:08;8.40;;;4.70;;
57023;SDS011;42916;54.346;18.562;2022-07-21T06:49:35;11.20;;;4.80;;
57023;SDS011;42916;54.346;18.562;2022-07-21T06:52:01;5.10;;;4.30;;
57023;SDS011;42916;54.346;18.562;2022-07-21T06:54:28;8.00;;;5.10;;
57023;SDS011;42916;54.346;18.562;2022-07-21T06:56:55;8.60;;;4.90;;
57023;SDS011;42916;54.346;18.562;2022-07-21T06:59:21;8.00;;;5.00;;
57023;SDS011;42916;54.346;18.562;2022-07-21T07:01:48;7.30;;;5.00;;
57023;SDS011;42916;54.346;18.562;2022-07-21T07:04:15;8.30;;;5.20;;
57023;SDS011;42916;54.346;18.562;2022-07-21T07:06:41;8.40;;;5.10;;
57023;SDS011;42916;54.346;18.562;2022-07-21T07:09:08;9.10;;;5.00;;
57023;SDS011;42916;54.346;18.562;2022-07-21T07:11:34;9.90;;;5.30;;
57023;SDS011;42916;54.346;18.562;2022-07-21T07:14:01;10.40;;;5.40;;
57023;SDS011;42916;54.346;18.562;2022-07-21T07:16:28;10.10;;;5.30;;
57023;SDS011;42916;54.346;18.562;2022-07-21T07:18:55;8.40;;;5.30;;
57023;SDS011;42916;54.346;18.562;2022-07-21T07:21:21;8.90;;;4.30;;
57023;SDS011;42916;54.346;18.562;2022-07-21T07:23:48;8.60;;;5.40;;
57023;SDS011;42916;54.346;18.562;2022-07-21T07:26:14;7.30;;;5.10;;
57023;SDS011;42916;54.346;18.562;2022-07-21T07:28:41;10.00;;;5.40;;
57023;SDS011;42916;54.346;18.562;2022-07-21T07:31:10;10.20;;;5.20;;
57023;SDS011;42916;54.346;18.562;2022-07-21T07:33:37;10.80;;;5.30;;
57023;SDS011;42916;54.346;18.562;2022-07-21T07:36:03;9.70;;;5.60;;
57023;SDS011;42916;54.346;18.562;2022-07-21T07:38:31;8.00;;;5.20;;
57023;SDS011;42916;54.346;18.562;2022-07-21T07:40:57;9.20;;;5.30;;
57023;SDS011;42916;54.346;18.562;2022-07-21T07:43:24;8.90;;;5.20;;
57023;SDS011;42916;54.346;18.562;2022-07-21T07:45:51;10.30;;;5.50;;
57023;SDS011;42916;54.346;18.562;2022-07-21T07:48:17;9.20;;;5.10;;
57023;SDS011;42916;54.346;18.562;2022-07-21T07:50:44;6.70;;;5.00;;
57023;SDS011;42916;54.346;18.562;2022-07-21T07:53:11;12.10;;;5.30;;
57023;SDS011;42916;54.346;18.562;2022-07-21T07:55:38;8.50;;;5.00;;
57023;SDS011;42916;54.346;18.562;2022-07-21T07:58:04;10.20;;;5.40;;
57023;SDS011;42916;54.346;18.562;2022-07-21T08:00:31;7.80;;;5.40;;
57023;SDS011;42916;54.346;18.562;2022-07-21T08:02:58;12.50;;;5.00;;
57023;SDS011;42916;54.346;18.562;2022-07-21T08:05:24;9.20;;;5.50;;
57023;SDS011;42916;54.346;18.562;2022-07-21T08:07:51;6.20;;;5.30;;
57023;SDS011;42916;54.346;18.562;2022-07-21T08:10:18;8.00;;;5.20;;
57023;SDS011;42916;54.346;18.562;2022-07-21T08:12:44;6.20;;;5.00;;
57023;SDS011;42916;54.346;18.562;2022-07-21T08:15:11;6.60;;;5.50;;
57023;SDS011;42916;54.346;18.562;2022-07-21T08:17:38;7.90;;;5.80;;
57023;SDS011;42916;54.346;18.562;2022-07-21T08:20:05;5.80;;;5.20;;
57023;SDS011;42916;54.346;18.562;2022-07-21T08:22:32;11.50;;;6.00;;
57023;SDS011;42916;54.346;18.562;2022-07-21T08:24:59;8.30;;;5.50;;
57023;SDS011;42916;54.346;18.562;2022-07-21T08:27:26;7.10;;;5.00;;
57023;SDS011;42916;54.346;18.562;2022-07-21T08:29:52;7.20;;;5.00;;
57023;SDS011;42916;54.346;18.562;2022-07-21T08:32:19;9.40;;;5.20;;
57023;SDS011;42916;54.346;18.562;2022-07-21T08:34:46;7.80;;;4.80;;
57023;SDS011;42916;54.346;18.562;2022-07-21T08:37:13;7.00;;;5.30;;
57023;SDS011;42916;54.346;18.562;2022-07-21T08:39:40;8.00;;;5.00;;
57023;SDS011;42916;54.346;18.562;2022-07-21T08:42:07;7.40;;;4.50;;
57023;SDS011;42916;54.346;18.562;2022-07-21T08:44:34;5.60;;;4.80;;
57023;SDS011;42916;54.346;18.562;2022-07-21T08:47:01;8.40;;;5.40;;
57023;SDS011;42916;54.346;18.562;2022-07-21T08:49:30;7.60;;;5.40;;
57023;SDS011;42916;54.346;18.562;2022-07-21T08:52:00;8.80;;;5.10;;
57023;SDS011;42916;54.346;18.562;2022-07-21T08:54:27;10.20;;;5.00;;
57023;SDS011;42916;54.346;18.562;2022-07-21T08:56:54;7.80;;;4.90;;
57023;SDS011;42916;54.346;18.562;2022-07-21T08:59:21;9.40;;;5.00;;
57023;SDS011;42916;54.346;18.562;2022-07-21T09:01:48;7.40;;;4.90;;
57023;SDS011;42916;54.346;18.562;2022-07-21T09:04:34;5.70;;;4.80;;
57023;SDS011;42916;54.346;18.562;2022-07-21T09:07:02;8.00;;;5.10;;
57023;SDS011;42916;54.346;18.562;2022-07-21T09:09:31;7.00;;;4.80;;
57023;SDS011;42916;54.346;18.562;2022-07-21T09:12:00;7.70;;;5.00;;
57023;SDS011;42916;54.346;18.562;2022-07-21T09:14:30;6.10;;;4.40;;
57023;SDS011;42916;54.346;18.562;2022-07-21T09:17:00;5.60;;;4.60;;
57023;SDS011;42916;54.346;18.562;2022-07-21T09:19:33;5.40;;;4.60;;
57023;SDS011;42916;54.346;18.562;2022-07-21T09:22:03;7.10;;;4.70;;
57023;SDS011;42916;54.346;18.562;2022-07-21T09:24:35;8.80;;;4.90;;
57023;SDS011;42916;54.346;18.562;2022-07-21T09:32:35;8.70;;;5.00;;
57023;SDS011;42916;54.346;18.562;2022-07-21T09:35:05;6.10;;;4.60;;
57023;SDS011;42916;54.346;18.562;2022-07-21T09:37:37;8.10;;;5.00;;
57023;SDS011;42916;54.346;18.562;2022-07-21T09:40:06;10.00;;;5.00;;
57023;SDS011;42916;54.346;18.562;2022-07-21T09:42:38;5.60;;;5.00;;
57023;SDS011;42916;54.346;18.562;2022-07-21T09:45:10;8.60;;;4.70;;
57023;SDS011;42916;54.346;18.562;2022-07-21T09:47:39;7.40;;;4.80;;
57023;SDS011;42916;54.346;18.562;2022-07-21T09:50:08;8.10;;;4.80;;
57023;SDS011;42916;54.346;18.562;2022-07-21T09:52:37;10.10;;;4.80;;
57023;SDS011;42916;54.346;18.562;2022-07-21T09:55:06;7.20;;;4.80;;
57023;SDS011;42916;54.346;18.562;2022-07-21T09:57:35;7.40;;;4.80;;
57023;SDS011;42916;54.346;18.562;2022-07-21T10:00:06;5.10;;;4.30;;
57023;SDS011;42916;54.346;18.562;2022-07-21T10:02:35;7.10;;;4.70;;
57023;SDS011;42916;54.346;18.562;2022-07-21T10:05:04;9.70;;;4.30;;
57023;SDS011;42916;54.346;18.562;2022-07-21T10:07:31;5.40;;;4.10;;
57023;SDS011;42916;54.346;18.562;2022-07-21T10:09:59;6.80;;;4.40;;
57023;SDS011;42916;54.346;18.562;2022-07-21T10:12:26;6.30;;;4.50;;
57023;SDS011;42916;54.346;18.562;2022-07-21T10:14:54;8.20;;;4.40;;
57023;SDS011;42916;54.346;18.562;2022-07-21T10:17:21;7.80;;;4.60;;
57023;SDS011;42916;54.346;18.562;2022-07-21T10:25:29;7.60;;;4.70;;
57023;SDS011;42916;54.346;18.562;2022-07-21T10:30:49;6.00;;;4.20;;
57023;SDS011;42916;54.346;18.562;2022-07-21T10:33:18;7.00;;;4.50;;
57023;SDS011;42916;54.346;18.562;2022-07-21T10:35:47;5.40;;;4.40;;
57023;SDS011;42916;54.346;18.562;2022-07-21T10:40:55;7.80;;;4.40;;
57023;SDS011;42916;54.346;18.562;2022-07-21T10:45:52;7.90;;;4.50;;
57023;SDS011;42916;54.346;18.562;2022-07-21T10:51:16;6.60;;;4.10;;
57023;SDS011;42916;54.346;18.562;2022-07-21T10:53:43;6.70;;;4.60;;
57023;SDS011;42916;54.346;18.562;2022-07-21T10:56:25;7.20;;;4.70;;
57023;SDS011;42916;54.346;18.562;2022-07-21T10:58:53;9.70;;;4.50;;
57023;SDS011;42916;54.346;18.562;2022-07-21T11:01:21;5.30;;;4.70;;
57023;SDS011;42916;54.346;18.562;2022-07-21T11:06:43;5.00;;;3.90;;
57023;SDS011;42916;54.346;18.562;2022-07-21T11:09:12;7.60;;;4.50;;
57023;SDS011;42916;54.346;18.562;2022-07-21T11:12:02;6.30;;;4.40;;
57023;SDS011;42916;54.346;18.562;2022-07-21T11:14:37;7.00;;;4.00;;
57023;SDS011;42916;54.346;18.562;2022-07-21T11:17:06;7.90;;;4.50;;
57023;SDS011;42916;54.346;18.562;2022-07-21T11:19:45;5.50;;;4.20;;
57023;SDS011;42916;54.346;18.562;2022-07-21T11:22:24;4.90;;;4.20;;
57023;SDS011;42916;54.346;18.562;2022-07-21T11:25:03;6.30;;;4.30;;
57023;SDS011;42916;54.346;18.562;2022-07-21T11:27:33;4.70;;;4.20;;
57023;SDS011;42916;54.346;18.562;2022-07-21T11:30:05;6.80;;;4.50;;
57023;SDS011;42916;54.346;18.562;2022-07-21T11:32:34;6.10;;;4.30;;
57023;SDS011;42916;54.346;18.562;2022-07-21T11:35:02;7.40;;;4.10;;
57023;SDS011;42916;54.346;18.562;2022-07-21T11:40:01;4.10;;;3.70;;
57023;SDS011;42916;54.346;18.562;2022-07-21T11:42:34;6.70;;;4.50;;
57023;SDS011;42916;54.346;18.562;2022-07-21T11:47:29;6.10;;;3.90;;
57023;SDS011;42916;54.346;18.562;2022-07-21T11:49:56;7.00;;;4.00;;
57023;SDS011;42916;54.346;18.562;2022-07-21T11:52:26;6.40;;;4.20;;
57023;SDS011;42916;54.346;18.562;2022-07-21T11:54:55;4.30;;;3.90;;
57023;SDS011;42916;54.346;18.562;2022-07-21T11:59:50;4.00;;;3.60;;
57023;SDS011;42916;54.346;18.562;2022-07-21T12:02:24;7.10;;;4.00;;
57023;SDS011;42916;54.346;18.562;2022-07-21T12:05:00;4.50;;;3.50;;
57023;SDS011;42916;54.346;18.562;2022-07-21T12:07:30;7.00;;;3.80;;
57023;SDS011;42916;54.346;18.562;2022-07-21T12:10:12;6.90;;;4.10;;
57023;SDS011;42916;54.346;18.562;2022-07-21T12:12:43;5.50;;;4.00;;
57023;SDS011;42916;54.346;18.562;2022-07-21T12:17:47;6.20;;;4.00;;
57023;SDS011;42916;54.346;18.562;2022-07-21T12:20:16;5.20;;;3.60;;
57023;SDS011;42916;54.346;18.562;2022-07-21T12:25:43;4.30;;;3.40;;
57023;SDS011;42916;54.346;18.562;2022-07-21T12:28:10;7.30;;;3.70;;
57023;SDS011;42916;54.346;18.562;2022-07-21T12:33:14;6.40;;;3.50;;
57023;SDS011;42916;54.346;18.562;2022-07-21T12:35:43;7.70;;;3.70;;
57023;SDS011;42916;54.346;18.562;2022-07-21T12:38:14;9.70;;;3.80;;
57023;SDS011;42916;54.346;18.562;2022-07-21T12:40:45;5.30;;;3.60;;
57023;SDS011;42916;54.346;18.562;2022-07-21T12:43:16;5.80;;;4.00;;
57023;SDS011;42916;54.346;18.562;2022-07-21T12:45:45;6.90;;;4.00;;
57023;SDS011;42916;54.346;18.562;2022-07-21T12:48:16;6.20;;;3.60;;
57023;SDS011;42916;54.346;18.562;2022-07-21T12:51:01;7.60;;;3.90;;
57023;SDS011;42916;54.346;18.562;2022-07-21T12:53:35;4.60;;;3.70;;
57023;SDS011;42916;54.346;18.562;2022-07-21T12:56:33;6.10;;;4.20;;
57023;SDS011;42916;54.346;18.562;2022-07-21T12:59:02;5.10;;;3.60;;
57023;SDS011;42916;54.346;18.562;2022-07-21T13:01:30;4.20;;;3.60;;
57023;SDS011;42916;54.346;18.562;2022-07-21T13:03:58;5.90;;;3.40;;
57023;SDS011;42916;54.346;18.562;2022-07-21T13:06:27;5.80;;;3.30;;
57023;SDS011;42916;54.346;18.562;2022-07-21T13:08:53;5.40;;;3.50;;
57023;SDS011;42916;54.346;18.562;2022-07-21T13:11:20;4.10;;;3.60;;
57023;SDS011;42916;54.346;18.562;2022-07-21T13:13:47;7.70;;;3.80;;
57023;SDS011;42916;54.346;18.562;2022-07-21T13:16:16;4.00;;;3.40;;
57023;SDS011;42916;54.346;18.562;2022-07-21T13:18:44;9.70;;;3.60;;
57023;SDS011;42916;54.346;18.562;2022-07-21T13:21:11;8.60;;;3.80;;
57023;SDS011;42916;54.346;18.562;2022-07-21T13:23:38;9.80;;;3.70;;
57023;SDS011;42916;54.346;18.562;2022-07-21T13:26:05;5.70;;;3.30;;
57023;SDS011;42916;54.346;18.562;2022-07-21T13:28:32;5.80;;;3.00;;
57023;SDS011;42916;54.346;18.562;2022-07-21T13:31:01;6.40;;;3.50;;
57023;SDS011;42916;54.346;18.562;2022-07-21T13:33:28;4.10;;;3.70;;
57023;SDS011;42916;54.346;18.562;2022-07-21T13:35:54;5.50;;;3.50;;
57023;SDS011;42916;54.346;18.562;2022-07-21T13:38:21;5.40;;;3.60;;
57023;SDS011;42916;54.346;18.562;2022-07-21T13:40:48;6.20;;;3.70;;
57023;SDS011;42916;54.346;18.562;2022-07-21T13:43:14;5.60;;;3.40;;
57023;SDS011;42916;54.346;18.562;2022-07-21T13:45:42;4.80;;;3.50;;
57023;SDS011;42916;54.346;18.562;2022-07-21T13:48:09;7.00;;;3.50;;
57023;SDS011;42916;54.346;18.562;2022-07-21T13:50:36;8.60;;;3.50;;
57023;SDS011;42916;54.346;18.562;2022-07-21T13:53:03;5.90;;;3.80;;
57023;SDS011;42916;54.346;18.562;2022-07-21T13:55:29;7.70;;;3.70;;
57023;SDS011;42916;54.346;18.562;2022-07-21T14:00:24;4.40;;;3.50;;
57023;SDS011;42916;54.346;18.562;2022-07-21T14:02:50;7.50;;;3.70;;
57023;SDS011;42916;54.346;18.562;2022-07-21T14:17:30;8.20;;;3.70;;
57023;SDS011;42916;54.346;18.562;2022-07-21T14:19:57;5.50;;;3.50;;
57023;SDS011;42916;54.346;18.562;2022-07-21T14:22:23;5.70;;;3.40;;
57023;SDS011;42916;54.346;18.562;2022-07-21T14:24:50;4.60;;;3.00;;
57023;SDS011;42916;54.346;18.562;2022-07-21T14:27:35;7.70;;;3.50;;
57023;SDS011;42916;54.346;18.562;2022-07-21T14:30:02;5.40;;;3.60;;
57023;SDS011;42916;54.346;18.562;2022-07-21T14:32:29;4.40;;;3.40;;
57023;SDS011;42916;54.346;18.562;2022-07-21T14:34:57;9.90;;;3.60;;
57023;SDS011;42916;54.346;18.562;2022-07-21T15:44:24;6.00;;;3.30;;
57023;SDS011;42916;54.346;18.562;2022-07-21T15:46:54;7.10;;;3.30;;
57023;SDS011;42916;54.346;18.562;2022-07-21T15:51:47;3.30;;;2.90;;
57023;SDS011;42916;54.346;18.562;2022-07-21T15:54:14;7.20;;;3.20;;
57023;SDS011;42916;54.346;18.562;2022-07-21T15:59:07;7.10;;;2.90;;
57023;SDS011;42916;54.346;18.562;2022-07-21T16:01:53;6.10;;;3.00;;
57023;SDS011;42916;54.346;18.562;2022-07-21T16:04:19;6.70;;;3.30;;
57023;SDS011;42916;54.346;18.562;2022-07-21T16:06:46;5.60;;;2.80;;
57023;SDS011;42916;54.346;18.562;2022-07-21T16:11:40;7.50;;;3.70;;
57023;SDS011;42916;54.346;18.562;2022-07-21T16:14:08;4.60;;;3.10;;
57023;SDS011;42916;54.346;18.562;2022-07-21T16:16:34;8.70;;;3.20;;
57023;SDS011;42916;54.346;18.562;2022-07-21T16:19:02;5.00;;;3.30;;
57023;SDS011;42916;54.346;18.562;2022-07-21T16:21:29;7.00;;;3.40;;
57023;SDS011;42916;54.346;18.562;2022-07-21T16:23:57;9.10;;;3.40;;
57023;SDS011;42916;54.346;18.562;2022-07-21T16:26:23;4.20;;;3.20;;
57023;SDS011;42916;54.346;18.562;2022-07-21T16:28:52;10.10;;;3.50;;
57023;SDS011;42916;54.346;18.562;2022-07-21T16:31:19;4.80;;;3.30;;
57023;SDS011;42916;54.346;18.562;2022-07-21T16:33:48;6.80;;;3.40;;
57023;SDS011;42916;54.346;18.562;2022-07-21T16:36:15;4.60;;;3.60;;
57023;SDS011;42916;54.346;18.562;2022-07-21T16:38:42;5.40;;;3.00;;
57023;SDS011;42916;54.346;18.562;2022-07-21T16:41:09;6.80;;;3.70;;
57023;SDS011;42916;54.346;18.562;2022-07-21T16:43:36;5.60;;;3.20;;
57023;SDS011;42916;54.346;18.562;2022-07-21T16:46:02;6.30;;;3.40;;
57023;SDS011;42916;54.346;18.562;2022-07-21T16:53:22;6.30;;;3.50;;
57023;SDS011;42916;54.346;18.562;2022-07-21T16:55:49;8.30;;;3.60;;